Hauptseite
METAR-TAF:

METAR-TAF

Flughäfen :

St. Moritz, Schweiz

Flughafen Engadin

Breite: 46-32-03N, Länge: 9-53-03E, Höhe: 1707 m

Beobachtung

Neuester Wetterbericht von vor 32 Minuten, um 10:50 UTC
Wind 2 kt aus unterschiedlichen Richtungen
Temperatur 1°C
Luftfeuchtigkeit 64%
Luftdruck 1018 hPa
Sichtweite 10 km oder mehr
keine Wolken unter 1500 m und keine Kumulonimbus oder Gewitterwolken

METAR: LSZS 231050Z VRB02KT CAVOK 01/M05 Q1018 RMK I

Zeit: 12:22 (11:22 UTC)

Prognose

Neuester Wetterbericht von vor 2 Stunden und 57 Minuten, um 08:25 UTC
Gültige Prognose vom 23 um 09 UTC bis 23 um 18 UTC
Wind 5 kt aus West/Südwest
Sichtweite 10 km oder mehr
Leicht bewölkt in der Höhe von 2600 ft
Zeitweise
vom 23 um 09 UTC bis 23 um 18 UTC
Sichtweite 10 km oder mehr
keine Wolken unter 1500 m und keine Kumulonimbus oder Gewitterwolken

TAF: LSZS 230825Z 2309/2318 24005KT 9999 FEW026 TX05/2314Z TEMPO 2309/2318 CAVOK

Wetterbeobachtungen und Prognosen von mehr als 4000 Flughäfen (METAR und TAF Bericht).

Die verfügbaren Stationen werden durch gelbe und rote Markierungen auf der Karte dargestellt.

Führen Sie die Maus auf sie, um den Namen der Station zu sehen.

Darauf klicken, um die Beobachtung von Wetterbeobachtungen und Prognosen zu sehen.

Um die Karte zu ändern : klicken Sie auf den grünen Tasten mit einem schwarzen Kreuz Zum Vergrößern, auf den grünen Button mit einem Gedankenstrich zu verkleinern, oder auf die grünen Pfeile für benachbarte Karten.


METAR-TAF: